Aérodrome :
LOGIN :

S'inscrire | Disclaimer

   EN    FR    IT 

 










Légende :    VFR   VFR Marginal   IFR   IFR Intensif   IFR Très Intensif
Visi : 
Plafond : 
>= 8 km
>= 3000ft
5 à 8 km
1000 à 3000 ft
1500m à 5 km
500 à 1000 ft
800 à 1500m
200 à 500 ft
< 800m
< 200 ft
Symboles :   Orages  Brouillard  Fortes neiges  Fortes précipitations  Vent > 20 kt
SIGMETs :   Divers  Orages  Givrage  Turbulence  Onde Orograph.  Cendres Volcan.







- Altitude de l'aérodrome : 1455 ft


ETIH - Hohenfels Army Air Field

DERNIER METAR :
  • 220604Z AUTO 23009G17KT 190V290 9999 OVC015 09/08 A2987 RMK AO2

METARs EXPIRÉS :
  • 220546Z AUTO 24009KT 200V280 9999 -DZ OVC014 09/08 A2987 RMK AO2 RAE00DZB00E06RAB06E07DZB17E22RAB22E38DZB38E40DZB46
  • 220540Z AUTO 24007G15KT 190V280 9999 OVC013 09/08 A2987 RMK AO2 RAE00DZB00E06RAB06E07DZB17E22RAB22E38DZB38E40
  • 220517Z AUTO 24007G16KT 9999 -DZ OVC012 09/08 A2987 RMK AO2 RAE00DZB00E06RAB06E07DZB17
  • 220507Z AUTO 24010G16KT 190V280 9999 OVC011 09/08 A2987 RMK AO2 RAE00DZB00E06RAB06E07
  • 220458Z AUTO 23007KT 9999 -RA OVC011 09/08 A2988 RMK AO2 DZB19E30DZB31E36RAB36 SLP125 T00870084
  • 220431Z AUTO 23009G16KT 9999 -DZ OVC010 09/08 A2989 RMK AO2 DZB19E30DZB31
  • 220419Z AUTO 26009G16KT 9999 -DZ OVC010 09/08 A2989 RMK AO2 DZB19
  • 220358Z AUTO VRB06KT 9999 OVC010 09/08 A2990 RMK AO2 RAE04DZB04E12 SLP132
  • 220340Z AUTO 24009KT 210V320 9999 OVC009 09/08 A2990 RMK AO2 RAE04DZB04E12
  • 220314Z AUTO VRB06KT 9999 OVC007 08/08 A2991 RMK AO2 RAE04DZB04E12
  • 220309Z AUTO VRB04KT 9999 -DZ OVC006 08/08 A2991 RMK AO2 RAE04DZB04

TAF TAF ETIH
Valide du 22 à 05h jusqu'au 23 à 11h UTC


220505Z 2205/2311 24012KT 9000 -DZ OVC010 620509 621402 QNH2984INS
TEMPO 2207/2211 25025G35KT 520004
BECMG 2210/2211 25025G35KT 9000 -RA OVC020 620509 621402 520004 QNH2976INS
BECMG 2217/2218 25025G35KT 8000 -RA OVC010 620609 621501 520001 QNH2975INS
BECMG 2305/2306 25012G18KT 9999 NSW SCT010 OVC040 620709 621602 QNH2972INS TX09/2214Z TN05/2304Z
Pas de NOTAMs connus pour ce terrain.



MET'MAP, la Météo Aéronautique d'un coup d'oeil ! - Copyright ORBIFLY Décembre 2007 - Disclaimer

ORBIFLY MET'MAP TEAM :

Programmation & Développement : Alexandra Zaïnal
Conception & Développement : Baudouin d'Aumeries
Co-Programmation & Développement : Marc-Olivier Méhu
Soutien technique & logistique : Manuel Goepfert

Contact : metmap@orbifly.com




SOURCES & CREDITS :

   NOAA